Time;durP1;ratioP1;P1;durP2;ratioP2;P2;SDS_P1;SDS_P2;PMS_P1;PMS_P2;Temp;Humidity;BMP_temperature;BMP_pressure;BME280_temperature;BME280_humidity;BME280_pressure;Samples;Min_cycle;Max_cycle;Signal;HPM_P1;HPM_P2
2022/04/23 00:00:42;;;;;;;23.98;15.00;;;;;;;-143.53;100.00;58366.03;2083682;28;20225;-67
2022/04/23 00:01:44;;;;;;;26.67;16.05;;;;;;;-143.53;100.00;58366.03;2076071;28;20212;-67
2022/04/23 00:02:45;;;;;;;26.50;16.38;;;;;;;-143.53;100.00;58366.03;2075035;28;20662;-66
2022/04/23 00:03:47;;;;;;;25.95;16.20;;;;;;;-143.53;100.00;58366.03;2085240;28;20243;-66
2022/04/23 00:04:49;;;;;;;23.95;15.10;;;;;;;-143.53;100.00;58366.03;2081710;28;20204;-66
2022/04/23 00:05:51;;;;;;;23.35;15.25;;;;;;;-143.53;100.00;58366.03;2081376;28;20228;-67
2022/04/23 00:06:52;;;;;;;23.23;15.98;;;;;;;-143.53;100.00;58366.03;2082248;28;20197;-66
2022/04/23 00:07:54;;;;;;;29.17;16.20;;;;;;;-143.53;100.00;58366.03;2084355;28;20201;-66
2022/04/23 00:08:55;;;;;;;21.77;15.32;;;;;;;-143.53;100.00;58366.03;2084620;28;20529;-66
2022/04/23 00:09:56;;;;;;;24.08;15.90;;;;;;;-143.53;100.00;58366.03;2083589;28;20689;-66
2022/04/23 00:10:59;;;;;;;23.15;16.88;;;;;;;-143.53;100.00;58366.03;2082445;28;20220;-67
2022/04/23 00:12:01;;;;;;;25.10;16.95;;;;;;;-143.53;100.00;58366.03;2086481;28;20207;-66
2022/04/23 00:13:04;;;;;;;24.23;15.40;;;;;;;-143.53;100.00;58366.03;2087299;28;20196;-66
2022/04/23 00:14:07;;;;;;;24.50;16.88;;;;;;;-143.53;100.00;58366.03;2085462;28;20207;-66
2022/04/23 00:15:09;;;;;;;27.48;17.65;;;;;;;-143.53;100.00;58366.03;2082620;28;20212;-66
2022/04/23 00:16:10;;;;;;;25.27;16.35;;;;;;;-143.53;100.00;58366.03;2086086;28;20227;-66
2022/04/23 00:17:12;;;;;;;20.38;15.10;;;;;;;-143.53;100.00;58366.03;2086630;28;20287;-66
2022/04/23 00:18:14;;;;;;;22.63;14.70;;;;;;;-143.53;100.00;58366.03;2077462;28;20212;-66
2022/04/23 00:19:16;;;;;;;27.15;16.33;;;;;;;-143.53;100.00;58366.03;2079304;28;20223;-66
2022/04/23 00:20:19;;;;;;;23.27;16.27;;;;;;;-143.53;100.00;58366.03;2084596;28;20226;-65
2022/04/23 00:21:20;;;;;;;27.05;15.93;;;;;;;-143.53;100.00;58366.03;2084363;28;20197;-66
2022/04/23 00:22:22;;;;;;;21.42;15.10;;;;;;;-143.53;100.00;58366.03;2084025;28;20481;-67
2022/04/23 00:23:25;;;;;;;25.23;15.93;;;;;;;-143.53;100.00;58366.03;2085540;28;20209;-66
2022/04/23 00:24:27;;;;;;;26.00;16.13;;;;;;;-143.53;100.00;58366.03;2080524;28;20216;-66
2022/04/23 00:25:29;;;;;;;22.45;14.07;;;;;;;-143.53;100.00;58366.03;2081874;28;20204;-66
2022/04/23 00:26:30;;;;;;;21.42;14.32;;;;;;;-143.53;100.00;58366.03;2084354;28;20201;-66
2022/04/23 00:27:31;;;;;;;24.83;16.65;;;;;;;-143.53;100.00;58366.03;2082721;28;20201;-66
2022/04/23 00:28:33;;;;;;;21.33;15.52;;;;;;;-143.53;100.00;58366.03;2083069;28;20193;-66
2022/04/23 00:29:35;;;;;;;28.80;15.00;;;;;;;-143.53;100.00;58366.03;2084188;28;20305;-67
2022/04/23 00:30:38;;;;;;;21.10;15.18;;;;;;;-143.53;100.00;58366.03;2083293;28;20542;-66
2022/04/23 00:31:41;;;;;;;24.42;14.52;;;;;;;-143.53;100.00;58366.03;2081608;28;20283;-66
2022/04/23 00:32:42;;;;;;;23.40;15.40;;;;;;;-143.53;100.00;58366.03;2083699;28;20244;-67
2022/04/23 00:33:44;;;;;;;25.20;14.30;;;;;;;-143.53;100.00;58366.03;2082953;28;20262;-66
2022/04/23 00:34:45;;;;;;;24.92;15.27;;;;;;;-143.53;100.00;58366.03;2083898;28;20246;-66
2022/04/23 00:35:49;;;;;;;32.67;14.88;;;;;;;-143.53;100.00;58366.03;2084061;28;20628;-66
2022/04/23 00:36:50;;;;;;;26.38;15.50;;;;;;;-143.53;100.00;58366.03;2084622;28;20226;-66
2022/04/23 00:37:52;;;;;;;28.02;16.63;;;;;;;-143.53;100.00;58366.03;2085566;28;20201;-66
2022/04/23 00:38:54;;;;;;;23.42;15.00;;;;;;;-143.53;100.00;58366.03;2085217;28;20200;-67
2022/04/23 00:39:55;;;;;;;27.05;15.90;;;;;;;-143.53;100.00;58366.03;2087014;28;20196;-66
2022/04/23 00:40:57;;;;;;;21.83;15.85;;;;;;;-143.53;100.00;58366.03;2086254;28;20562;-66
2022/04/23 00:42:00;;;;;;;22.65;15.18;;;;;;;-143.53;100.00;58366.03;2088467;28;20200;-66
2022/04/23 00:43:05;;;;;;;24.20;15.85;;;;;;;-143.53;100.00;58366.03;2088631;28;20203;-66
2022/04/23 00:44:08;;;;;;;20.63;15.02;;;;;;;-143.53;100.00;58366.03;2085893;28;20664;-66
2022/04/23 00:45:09;;;;;;;22.23;16.95;;;;;;;-143.53;100.00;58366.03;2085647;28;20594;-66
2022/04/23 00:46:10;;;;;;;23.92;15.73;;;;;;;-143.53;100.00;58366.03;2084257;28;20217;-66
2022/04/23 00:47:12;;;;;;;22.73;15.80;;;;;;;-143.53;100.00;58366.03;2085672;28;20200;-66
2022/04/23 00:48:13;;;;;;;26.15;16.08;;;;;;;-143.53;100.00;58366.03;2086553;28;20207;-66
2022/04/23 00:49:15;;;;;;;25.70;15.07;;;;;;;-143.53;100.00;58366.03;2084585;28;20205;-66
2022/04/23 00:50:21;;;;;;;24.92;15.48;;;;;;;-143.53;100.00;58366.03;2086952;28;20197;-66
2022/04/23 00:51:24;;;;;;;24.60;16.52;;;;;;;-143.53;100.00;58366.03;2084969;28;20221;-66
2022/04/23 00:52:25;;;;;;;21.10;14.68;;;;;;;-143.53;100.00;58366.03;2077149;28;20204;-66
2022/04/23 00:53:28;;;;;;;23.48;15.07;;;;;;;-143.53;100.00;58366.03;2076701;28;20201;-66
2022/04/23 00:54:30;;;;;;;24.00;16.80;;;;;;;-143.53;100.00;58366.03;2085401;28;20189;-66
2022/04/23 00:55:33;;;;;;;25.27;16.25;;;;;;;-143.53;100.00;58366.03;2086292;28;20545;-66
2022/04/23 00:56:37;;;;;;;23.40;16.40;;;;;;;-143.53;100.00;58366.03;2083904;28;20201;-66
2022/04/23 00:57:38;;;;;;;25.42;16.65;;;;;;;-143.53;100.00;58366.03;2085744;28;20659;-67
2022/04/23 00:58:40;;;;;;;24.35;16.45;;;;;;;-143.53;100.00;58366.03;2088029;28;20201;-66
2022/04/23 00:59:43;;;;;;;26.27;16.65;;;;;;;-143.53;100.00;58366.03;2086630;28;20203;-66
2022/04/23 01:00:45;;;;;;;22.05;14.82;;;;;;;-143.53;100.00;58366.03;2083825;28;20692;-66
2022/04/23 01:01:48;;;;;;;24.45;15.18;;;;;;;-143.53;100.00;58366.03;2086189;28;20832;-66
2022/04/23 01:02:54;;;;;;;25.02;15.60;;;;;;;-143.53;100.00;58366.03;2085646;28;20208;-66
2022/04/23 01:03:57;;;;;;;22.23;15.98;;;;;;;-143.53;100.00;58366.03;2085434;28;20546;-66
2022/04/23 01:04:59;;;;;;;21.65;16.23;;;;;;;-143.53;100.00;58366.03;2086187;28;20199;-66
2022/04/23 01:06:00;;;;;;;26.58;17.40;;;;;;;-143.53;100.00;58366.03;2084068;28;20235;-66
2022/04/23 01:07:03;;;;;;;24.20;16.42;;;;;;;-143.53;100.00;58366.03;2084337;28;20223;-66
2022/04/23 01:08:05;;;;;;;24.02;15.95;;;;;;;-143.53;100.00;58366.03;2085919;28;20231;-66
2022/04/23 01:09:08;;;;;;;27.55;16.23;;;;;;;-143.53;100.00;58366.03;2085822;28;20333;-66
2022/04/23 01:10:11;;;;;;;34.03;16.75;;;;;;;-143.53;100.00;58366.03;2085145;28;20216;-66
2022/04/23 01:11:13;;;;;;;22.70;15.38;;;;;;;-143.53;100.00;58366.03;2083784;28;20227;-66
2022/04/23 01:12:16;;;;;;;23.15;16.15;;;;;;;-143.53;100.00;58366.03;2084035;28;20196;-66
2022/04/23 01:13:18;;;;;;;31.05;16.48;;;;;;;-143.53;100.00;58366.03;2079612;28;20336;-66
2022/04/23 01:14:19;;;;;;;20.73;15.43;;;;;;;-143.53;100.00;58366.03;2080325;28;20714;-66
2022/04/23 01:15:21;;;;;;;22.17;15.82;;;;;;;-143.53;100.00;58366.03;2086075;28;20656;-66
2022/04/23 01:16:22;;;;;;;23.98;16.13;;;;;;;-143.53;100.00;58366.03;2084977;28;20216;-66
2022/04/23 01:17:24;;;;;;;24.52;16.27;;;;;;;-143.53;100.00;58366.03;2085805;28;20236;-66
2022/04/23 01:18:26;;;;;;;21.15;15.25;;;;;;;-143.53;100.00;58366.03;2086301;28;20196;-67
2022/04/23 01:19:29;;;;;;;26.02;16.42;;;;;;;-143.53;100.00;58366.03;2085655;28;20668;-66
2022/04/23 01:20:34;;;;;;;26.60;15.25;;;;;;;-143.53;100.00;58366.03;2083946;28;20200;-66
2022/04/23 01:21:35;;;;;;;27.85;16.83;;;;;;;-143.53;100.00;58366.03;2086559;28;20410;-66
2022/04/23 01:22:38;;;;;;;26.10;16.05;;;;;;;-143.53;100.00;58366.03;2085887;28;20210;-66
2022/04/23 01:23:41;;;;;;;21.65;14.85;;;;;;;-143.53;100.00;58366.03;2083739;28;20199;-66
2022/04/23 01:24:43;;;;;;;29.75;16.25;;;;;;;-143.53;100.00;58366.03;2085969;28;20685;-66
2022/04/23 01:25:45;;;;;;;21.50;15.77;;;;;;;-143.53;100.00;58366.03;2085164;28;20220;-66
2022/04/23 01:26:47;;;;;;;22.48;14.88;;;;;;;-143.53;100.00;58366.03;2084600;28;20203;-66
2022/04/23 01:27:50;;;;;;;24.80;15.85;;;;;;;-143.53;100.00;58366.03;2083675;28;20238;-66
2022/04/23 01:28:51;;;;;;;26.10;14.77;;;;;;;-143.53;100.00;58366.03;2086695;28;20618;-66
2022/04/23 01:29:55;;;;;;;21.42;16.00;;;;;;;-143.53;100.00;58366.03;2078601;28;20624;-66
2022/04/23 01:30:57;;;;;;;35.53;17.83;;;;;;;-143.53;100.00;58366.03;2080185;28;20224;-66
2022/04/23 01:31:58;;;;;;;27.75;15.25;;;;;;;-143.53;100.00;58366.03;2085978;28;20296;-66
2022/04/23 01:33:00;;;;;;;22.55;15.15;;;;;;;-143.53;100.00;58366.03;2086193;28;20197;-66
2022/04/23 01:34:02;;;;;;;21.73;15.43;;;;;;;-143.53;100.00;58366.03;2085596;28;20197;-66
2022/04/23 01:35:05;;;;;;;30.08;15.40;;;;;;;-143.53;100.00;58366.03;2084694;28;20204;-66
2022/04/23 01:36:06;;;;;;;22.35;15.50;;;;;;;-143.53;100.00;58366.03;2085264;28;20220;-66
2022/04/23 01:37:08;;;;;;;28.55;16.85;;;;;;;-143.53;100.00;58366.03;2085335;28;20196;-67
2022/04/23 01:38:10;;;;;;;21.92;15.15;;;;;;;-143.53;100.00;58366.03;2085943;28;20208;-66
2022/04/23 01:39:12;;;;;;;23.60;15.98;;;;;;;-143.53;100.00;58366.03;2085592;28;20195;-66
2022/04/23 01:40:13;;;;;;;24.85;15.38;;;;;;;-143.53;100.00;58366.03;2087302;28;20196;-66
2022/04/23 01:41:15;;;;;;;27.38;14.40;;;;;;;-143.53;100.00;58366.03;2086697;28;20235;-66
2022/04/23 01:42:18;;;;;;;20.92;14.65;;;;;;;-143.53;100.00;58366.03;2086006;28;20207;-66
2022/04/23 01:43:20;;;;;;;22.48;15.23;;;;;;;-143.53;100.00;58366.03;2087247;28;20792;-66
2022/04/23 01:44:21;;;;;;;28.90;15.30;;;;;;;-143.53;100.00;58366.03;2087170;28;20845;-66
2022/04/23 01:45:23;;;;;;;22.58;14.30;;;;;;;-143.53;100.00;58366.03;2083270;28;20764;-66
2022/04/23 01:46:24;;;;;;;23.50;14.15;;;;;;;-143.53;100.00;58366.03;2083660;28;20197;-66
2022/04/23 01:47:26;;;;;;;20.27;14.50;;;;;;;-143.53;100.00;58366.03;2085063;28;20232;-66
2022/04/23 01:48:27;;;;;;;21.58;13.52;;;;;;;-143.53;100.00;58366.03;2085500;28;20235;-66
2022/04/23 01:49:29;;;;;;;21.38;14.88;;;;;;;-143.53;100.00;58366.03;2087629;28;20195;-66
2022/04/23 01:50:30;;;;;;;24.08;14.80;;;;;;;-143.53;100.00;58366.03;2084524;28;20209;-66
2022/04/23 01:51:32;;;;;;;22.42;14.50;;;;;;;-143.53;100.00;58366.03;2083438;28;20211;-66
2022/04/23 01:52:33;;;;;;;18.42;14.02;;;;;;;-143.53;100.00;58366.03;2085367;28;20203;-66
2022/04/23 01:53:35;;;;;;;21.48;14.73;;;;;;;-143.53;100.00;58366.03;2078919;28;20197;-66
2022/04/23 01:54:37;;;;;;;25.20;14.70;;;;;;;-143.53;100.00;58366.03;2075715;28;20198;-66
2022/04/23 01:55:39;;;;;;;22.30;14.70;;;;;;;-143.53;100.00;58366.03;2084071;28;20233;-66
2022/04/23 01:56:41;;;;;;;22.95;15.80;;;;;;;-143.53;100.00;58366.03;2085280;28;20201;-66
2022/04/23 01:57:42;;;;;;;26.20;15.68;;;;;;;-143.53;100.00;58366.03;2085651;28;20202;-66
2022/04/23 01:58:43;;;;;;;21.13;14.38;;;;;;;-143.53;100.00;58366.03;2084519;28;20200;-66
2022/04/23 01:59:45;;;;;;;22.10;16.02;;;;;;;-143.53;100.00;58366.03;2086326;28;20548;-66
2022/04/23 02:00:47;;;;;;;21.67;15.35;;;;;;;-143.53;100.00;58366.03;2083867;28;20220;-66
2022/04/23 02:02:02;;;;;;;24.67;15.40;;;;;;;-143.53;100.00;58366.03;2059468;28;20202;-66
2022/04/23 02:03:04;;;;;;;22.90;14.57;;;;;;;-143.53;100.00;58366.03;2060214;28;20206;-67
2022/04/23 02:04:06;;;;;;;26.98;14.60;;;;;;;-143.53;100.00;58366.03;2060376;28;20238;-66
2022/04/23 02:05:09;;;;;;;23.73;15.27;;;;;;;-143.53;100.00;58366.03;2060374;28;20210;-66
2022/04/23 02:06:12;;;;;;;20.30;14.18;;;;;;;-143.53;100.00;58366.03;2057773;28;20226;-66
2022/04/23 02:07:13;;;;;;;21.92;14.55;;;;;;;-143.53;100.00;58366.03;2060426;28;20199;-67
2022/04/23 02:08:16;;;;;;;23.60;15.80;;;;;;;-143.53;100.00;58366.03;2057978;28;20650;-66
2022/04/23 02:09:18;;;;;;;21.75;14.05;;;;;;;-143.53;100.00;58366.03;2058191;28;20669;-66
2022/04/23 02:10:19;;;;;;;24.58;14.85;;;;;;;-143.53;100.00;58366.03;2058573;28;20354;-66
2022/04/23 02:11:21;;;;;;;24.63;15.90;;;;;;;-143.53;100.00;58366.03;2059849;28;20198;-66
2022/04/23 02:12:24;;;;;;;26.35;15.98;;;;;;;-143.53;100.00;58366.03;2059551;28;20756;-66
2022/04/23 02:13:26;;;;;;;23.27;14.63;;;;;;;-143.53;100.00;58366.03;2060973;28;20198;-66
2022/04/23 02:14:28;;;;;;;21.67;15.52;;;;;;;-143.53;100.00;58366.03;2061219;28;20210;-66
2022/04/23 02:15:30;;;;;;;22.20;14.98;;;;;;;-143.53;100.00;58366.03;2059427;28;20209;-66
2022/04/23 02:16:32;;;;;;;21.58;15.68;;;;;;;-143.53;100.00;58366.03;2061477;28;20206;-66
2022/04/23 02:17:41;;;;;;;19.08;13.23;;;;;;;-143.53;100.00;58366.03;2058504;28;20705;-66
2022/04/23 02:18:43;;;;;;;20.17;13.85;;;;;;;-143.53;100.00;58366.03;2059615;28;20199;-67
2022/04/23 02:19:44;;;;;;;21.23;14.95;;;;;;;-143.53;100.00;58366.03;2059049;28;20311;-66
2022/04/23 02:20:46;;;;;;;21.90;14.68;;;;;;;-143.53;100.00;58366.03;2057741;28;20444;-66
2022/04/23 02:21:48;;;;;;;24.50;16.67;;;;;;;-143.53;100.00;58366.03;2059066;28;20270;-66
2022/04/23 02:22:49;;;;;;;21.13;14.77;;;;;;;-143.53;100.00;58366.03;2060584;28;20202;-66
2022/04/23 02:23:53;;;;;;;24.17;14.98;;;;;;;-143.53;100.00;58366.03;2058548;28;20210;-66
2022/04/23 02:24:54;;;;;;;23.58;14.93;;;;;;;-143.53;100.00;58366.03;2060507;28;20206;-66
2022/04/23 02:25:55;;;;;;;23.50;14.90;;;;;;;-143.53;100.00;58366.03;2060917;28;20226;-66
2022/04/23 02:26:57;;;;;;;21.85;15.35;;;;;;;-143.53;100.00;58366.03;2058700;28;20673;-67
2022/04/23 02:27:59;;;;;;;21.88;14.05;;;;;;;-143.53;100.00;58366.03;2060330;28;20198;-66
2022/04/23 02:29:00;;;;;;;19.25;14.23;;;;;;;-143.53;100.00;58366.03;2059463;28;20206;-66
2022/04/23 02:30:02;;;;;;;22.10;15.20;;;;;;;-143.53;100.00;58366.03;2060360;28;20203;-66
2022/04/23 02:31:05;;;;;;;22.63;14.27;;;;;;;-143.53;100.00;58366.03;2057565;28;20257;-66
2022/04/23 02:32:07;;;;;;;20.48;13.90;;;;;;;-143.53;100.00;58366.03;2058873;28;20199;-66
2022/04/23 02:33:08;;;;;;;23.65;15.75;;;;;;;-143.53;100.00;58366.03;2060166;28;20205;-66
2022/04/23 02:34:10;;;;;;;23.15;15.98;;;;;;;-143.53;100.00;58366.03;2081118;28;20201;-67
2022/04/23 02:35:14;;;;;;;25.98;14.32;;;;;;;-143.53;100.00;58366.03;2085552;28;20561;-67
2022/04/23 02:36:16;;;;;;;19.83;13.68;;;;;;;-143.53;100.00;58366.03;2085646;28;20223;-66
2022/04/23 02:37:17;;;;;;;22.00;14.55;;;;;;;-143.53;100.00;58366.03;2086120;28;20241;-66
2022/04/23 02:38:19;;;;;;;19.70;13.77;;;;;;;-143.53;100.00;58366.03;2085463;28;20192;-66
2022/04/23 02:39:20;;;;;;;23.33;15.30;;;;;;;-143.53;100.00;58366.03;2084930;28;20203;-66
2022/04/23 02:40:22;;;;;;;21.95;14.20;;;;;;;-143.53;100.00;58366.03;2085433;28;20193;-66
2022/04/23 02:41:24;;;;;;;20.60;14.10;;;;;;;-143.53;100.00;58366.03;2084428;28;20526;-66
2022/04/23 02:42:25;;;;;;;21.98;15.00;;;;;;;-143.53;100.00;58366.03;2084816;28;20192;-66
2022/04/23 02:43:27;;;;;;;21.45;14.35;;;;;;;-143.53;100.00;58366.03;2084241;28;20580;-66
2022/04/23 02:44:28;;;;;;;20.92;14.50;;;;;;;-143.53;100.00;58366.03;2086817;28;20222;-66
2022/04/23 02:45:30;;;;;;;21.63;13.95;;;;;;;-143.53;100.00;58366.03;2084137;28;20199;-66
2022/04/23 02:46:31;;;;;;;22.38;14.65;;;;;;;-143.53;100.00;58366.03;2085990;28;20200;-66
2022/04/23 02:47:48;;;;;;;22.75;15.13;;;;;;;-143.53;100.00;58366.03;2086630;28;20212;-66
2022/04/23 02:48:50;;;;;;;24.23;14.65;;;;;;;-143.53;100.00;58366.03;2083267;28;20591;-66
2022/04/23 02:49:51;;;;;;;26.25;14.88;;;;;;;-143.53;100.00;58366.03;2084005;28;20210;-66
2022/04/23 02:50:52;;;;;;;20.00;13.32;;;;;;;-143.53;100.00;58366.03;2085761;28;20253;-66
2022/04/23 02:51:54;;;;;;;21.13;15.07;;;;;;;-143.53;100.00;58366.03;2086397;28;20199;-66
2022/04/23 02:52:57;;;;;;;19.08;14.77;;;;;;;-143.53;100.00;58366.03;2083479;28;20208;-66
2022/04/23 02:53:58;;;;;;;19.60;14.38;;;;;;;-143.53;100.00;58366.03;2085482;28;20205;-66
2022/04/23 02:54:59;;;;;;;22.73;14.45;;;;;;;-143.53;100.00;58366.03;2086426;28;20196;-66
2022/04/23 02:56:02;;;;;;;20.98;14.40;;;;;;;-143.53;100.00;58366.03;2081561;28;20213;-66
2022/04/23 02:57:04;;;;;;;18.80;13.77;;;;;;;-143.53;100.00;58366.03;2082792;28;20271;-66
2022/04/23 02:58:08;;;;;;;22.10;15.85;;;;;;;-143.53;100.00;58366.03;2086448;28;20196;-66
2022/04/23 02:59:09;;;;;;;24.27;14.77;;;;;;;-143.53;100.00;58366.03;2086567;28;20199;-65
2022/04/23 03:00:11;;;;;;;23.45;15.30;;;;;;;-143.53;100.00;58366.03;2082401;28;20203;-66
2022/04/23 03:01:12;;;;;;;23.30;15.95;;;;;;;-143.53;100.00;58366.03;2082943;28;20702;-65
2022/04/23 03:02:14;;;;;;;27.02;15.85;;;;;;;-143.53;100.00;58366.03;2079544;28;20193;-66
2022/04/23 03:03:15;;;;;;;26.75;15.35;;;;;;;-143.53;100.00;58366.03;2077974;28;20205;-66
2022/04/23 03:04:19;;;;;;;25.33;15.23;;;;;;;-143.53;100.00;58366.03;2083561;28;20200;-66
2022/04/23 03:05:21;;;;;;;21.00;13.95;;;;;;;-143.53;100.00;58366.03;2082285;28;20236;-65
2022/04/23 03:06:28;;;;;;;23.75;14.25;;;;;;;-143.53;100.00;58366.03;2084785;28;20196;-66
2022/04/23 03:07:30;;;;;;;21.38;13.65;;;;;;;-143.53;100.00;58366.03;2084023;28;20201;-65
2022/04/23 03:08:32;;;;;;;21.92;14.82;;;;;;;-143.53;100.00;58366.03;2084774;28;20201;-66
2022/04/23 03:09:33;;;;;;;24.75;14.63;;;;;;;-143.53;100.00;58366.03;2084246;28;20556;-65
2022/04/23 03:10:35;;;;;;;22.30;14.88;;;;;;;-143.53;100.00;58366.03;2081014;28;20220;-65
2022/04/23 03:11:36;;;;;;;24.40;15.43;;;;;;;-143.53;100.00;58366.03;2079164;28;20747;-65
2022/04/23 03:12:39;;;;;;;27.27;15.75;;;;;;;-143.53;100.00;58366.03;2084677;28;20200;-66
2022/04/23 03:13:40;;;;;;;21.85;14.45;;;;;;;-143.53;100.00;58366.03;2084909;28;20312;-65
2022/04/23 03:14:43;;;;;;;21.92;14.13;;;;;;;-143.53;100.00;58366.03;2084457;28;20199;-66
2022/04/23 03:15:45;;;;;;;26.42;14.40;;;;;;;-143.53;100.00;58366.03;2085993;28;20231;-66
2022/04/23 03:16:46;;;;;;;21.52;15.68;;;;;;;-143.53;100.00;58366.03;2086955;28;20278;-66
2022/04/23 03:17:48;;;;;;;22.67;15.35;;;;;;;-143.53;100.00;58366.03;2083408;28;20205;-65
2022/04/23 03:18:50;;;;;;;24.00;15.23;;;;;;;-143.53;100.00;58366.03;2084540;28;20204;-66
2022/04/23 03:19:53;;;;;;;27.98;15.00;;;;;;;-143.53;100.00;58366.03;2084337;28;20212;-66
2022/04/23 03:20:55;;;;;;;18.90;13.98;;;;;;;-143.53;100.00;58366.03;2084951;28;20221;-66
2022/04/23 03:21:57;;;;;;;21.08;15.15;;;;;;;-143.53;100.00;58366.03;2076840;28;20204;-66
2022/04/23 03:22:59;;;;;;;26.45;14.73;;;;;;;-143.53;100.00;58366.03;2075152;28;20204;-66
2022/04/23 03:24:00;;;;;;;27.13;16.85;;;;;;;-143.53;100.00;58366.03;2084843;28;20205;-66
2022/04/23 03:25:03;;;;;;;26.08;15.60;;;;;;;-143.53;100.00;58366.03;2086055;28;20205;-66
2022/04/23 03:26:04;;;;;;;23.73;15.35;;;;;;;-143.53;100.00;58366.03;2086269;28;20221;-65
2022/04/23 03:27:06;;;;;;;25.52;14.30;;;;;;;-143.53;100.00;58366.03;2083149;28;20197;-66
2022/04/23 03:28:08;;;;;;;24.55;15.25;;;;;;;-143.53;100.00;58366.03;2084921;28;20200;-66
2022/04/23 03:29:10;;;;;;;20.02;14.95;;;;;;;-143.53;100.00;58366.03;2083563;28;20200;-66
2022/04/23 03:30:11;;;;;;;24.40;14.88;;;;;;;-143.53;100.00;58366.03;2084770;28;20201;-66
2022/04/23 03:31:13;;;;;;;19.73;14.05;;;;;;;-143.53;100.00;58366.03;2086152;28;20224;-66
2022/04/23 03:32:14;;;;;;;23.48;15.23;;;;;;;-143.53;100.00;58366.03;2077828;28;20220;-66
2022/04/23 03:33:16;;;;;;;22.75;15.75;;;;;;;-143.53;100.00;58366.03;2079453;28;20196;-66
2022/04/23 03:34:20;;;;;;;21.48;14.93;;;;;;;-143.53;100.00;58366.03;2084791;28;20657;-66
2022/04/23 03:35:21;;;;;;;21.10;15.05;;;;;;;-143.53;100.00;58366.03;2083308;28;20201;-65
2022/04/23 03:36:23;;;;;;;23.35;16.00;;;;;;;-143.53;100.00;58366.03;2083478;28;20196;-66
2022/04/23 03:37:25;;;;;;;25.17;17.27;;;;;;;-143.53;100.00;58366.03;2083081;28;20197;-66
2022/04/23 03:38:26;;;;;;;23.73;15.30;;;;;;;-143.53;100.00;58366.03;2084519;28;20200;-66
2022/04/23 03:39:28;;;;;;;23.95;16.00;;;;;;;-143.53;100.00;58366.03;2082702;28;20220;-66
2022/04/23 03:40:30;;;;;;;24.13;15.65;;;;;;;-143.53;100.00;58366.03;2083807;28;20563;-66
2022/04/23 03:41:34;;;;;;;26.70;15.77;;;;;;;-143.53;100.00;58366.03;2084997;28;20232;-66
2022/04/23 03:42:36;;;;;;;22.70;15.27;;;;;;;-143.53;100.00;58366.03;2084162;28;20227;-66
2022/04/23 03:43:37;;;;;;;23.52;16.60;;;;;;;-143.53;100.00;58366.03;2084205;28;20209;-66
2022/04/23 03:44:39;;;;;;;20.85;14.60;;;;;;;-143.53;100.00;58366.03;2084026;28;20726;-66
2022/04/23 03:45:41;;;;;;;25.15;16.08;;;;;;;-143.53;100.00;58366.03;2085196;28;20859;-66
2022/04/23 03:46:42;;;;;;;23.67;16.45;;;;;;;-143.53;100.00;58366.03;2083643;28;20201;-66
2022/04/23 03:47:46;;;;;;;22.17;15.45;;;;;;;-143.53;100.00;58366.03;2082601;28;20193;-66
2022/04/23 03:48:47;;;;;;;22.33;15.65;;;;;;;-143.53;100.00;58366.03;2084726;28;20208;-66
2022/04/23 03:49:49;;;;;;;22.17;14.77;;;;;;;-143.53;100.00;58366.03;2085451;28;20197;-66
2022/04/23 03:50:51;;;;;;;21.92;14.88;;;;;;;-143.53;100.00;58366.03;2078771;28;20227;-66
2022/04/23 03:51:52;;;;;;;23.13;16.33;;;;;;;-143.53;100.00;58366.03;2079375;28;20619;-66
2022/04/23 03:52:53;;;;;;;25.23;16.67;;;;;;;-143.53;100.00;58366.03;2084594;28;20208;-66
2022/04/23 03:53:55;;;;;;;25.00;14.95;;;;;;;-143.53;100.00;58366.03;2083388;28;20207;-66
2022/04/23 03:54:57;;;;;;;23.10;16.02;;;;;;;-143.53;100.00;58366.03;2082692;28;20207;-66
2022/04/23 03:55:58;;;;;;;21.30;14.27;;;;;;;-143.53;100.00;58366.03;2086057;28;20267;-66
2022/04/23 03:57:01;;;;;;;25.30;16.00;;;;;;;-143.53;100.00;58366.03;2084492;28;20196;-66
2022/04/23 03:58:02;;;;;;;25.25;16.20;;;;;;;-143.53;100.00;58366.03;2084470;28;20212;-66
2022/04/23 03:59:05;;;;;;;25.13;16.45;;;;;;;-143.53;100.00;58366.03;2084236;28;20193;-66
2022/04/23 04:00:08;;;;;;;22.92;15.23;;;;;;;-143.53;100.00;58366.03;2084196;28;20199;-66
2022/04/23 04:01:10;;;;;;;28.30;16.45;;;;;;;-143.53;100.00;58366.03;2077528;28;20280;-66
2022/04/23 04:02:11;;;;;;;21.35;15.88;;;;;;;-143.53;100.00;58366.03;2073729;28;20232;-66
2022/04/23 04:03:13;;;;;;;23.90;15.85;;;;;;;-143.53;100.00;58366.03;2081958;28;20203;-66
2022/04/23 04:04:15;;;;;;;25.60;16.40;;;;;;;-143.53;100.00;58366.03;2082991;28;20201;-66
2022/04/23 04:05:17;;;;;;;21.75;14.90;;;;;;;-143.53;100.00;58366.03;2083164;28;20197;-66
2022/04/23 04:06:18;;;;;;;26.23;16.45;;;;;;;-143.53;100.00;58366.03;2084133;28;20224;-66
2022/04/23 04:07:20;;;;;;;27.00;16.13;;;;;;;-143.53;100.00;58366.03;2083756;28;20208;-66
2022/04/23 04:08:21;;;;;;;22.35;14.95;;;;;;;-143.53;100.00;58366.03;2082170;28;20193;-66
2022/04/23 04:09:23;;;;;;;23.50;16.25;;;;;;;-143.53;100.00;58366.03;2081436;28;20212;-65
2022/04/23 04:10:24;;;;;;;24.20;16.95;;;;;;;-143.53;100.00;58366.03;2085010;28;20200;-66
2022/04/23 04:11:26;;;;;;;22.50;16.20;;;;;;;-143.53;100.00;58366.03;2085061;28;20214;-66
2022/04/23 04:12:28;;;;;;;21.25;15.57;;;;;;;-143.53;100.00;58366.03;2086593;28;20200;-66
2022/04/23 04:13:29;;;;;;;26.58;17.35;;;;;;;-143.53;100.00;58366.03;2087778;28;20240;-66
2022/04/23 04:14:34;;;;;;;23.15;16.52;;;;;;;-143.53;100.00;58366.03;2087707;28;20199;-66
2022/04/23 04:15:37;;;;;;;26.25;18.00;;;;;;;-143.53;100.00;58366.03;2086373;28;20208;-66
2022/04/23 04:16:38;;;;;;;24.15;17.20;;;;;;;-143.53;100.00;58366.03;2085638;28;20189;-66
2022/04/23 04:17:40;;;;;;;26.42;15.95;;;;;;;-143.53;100.00;58366.03;2084182;28;20208;-66
2022/04/23 04:18:42;;;;;;;28.77;17.98;;;;;;;-143.53;100.00;58366.03;2084160;28;20200;-66
2022/04/23 04:19:43;;;;;;;25.38;16.27;;;;;;;-143.53;100.00;58366.03;2085820;28;20197;-66
2022/04/23 04:20:48;;;;;;;24.17;15.70;;;;;;;-143.53;100.00;58366.03;2083408;28;20632;-66
2022/04/23 04:21:50;;;;;;;25.95;16.83;;;;;;;-143.53;100.00;58366.03;2087559;28;20193;-66
2022/04/23 04:22:52;;;;;;;25.65;17.13;;;;;;;-143.53;100.00;58366.03;2087908;28;20189;-66
2022/04/23 04:23:54;;;;;;;21.70;16.77;;;;;;;-143.53;100.00;58366.03;2085592;28;20197;-66
2022/04/23 04:24:57;;;;;;;27.13;16.73;;;;;;;-143.53;100.00;58366.03;2080738;28;20669;-66
2022/04/23 04:25:59;;;;;;;23.10;16.92;;;;;;;-143.53;100.00;58366.03;2080600;28;20226;-66
2022/04/23 04:27:02;;;;;;;24.92;17.60;;;;;;;-143.53;100.00;58366.03;2086684;28;20197;-66
2022/04/23 04:28:03;;;;;;;26.20;16.95;;;;;;;-143.53;100.00;58366.03;2084599;28;20590;-66
2022/04/23 04:29:05;;;;;;;22.90;16.75;;;;;;;-143.53;100.00;58366.03;2087896;28;20193;-66
2022/04/23 04:30:09;;;;;;;24.38;17.42;;;;;;;-143.53;100.00;58366.03;2079561;28;20274;-65
2022/04/23 04:32:31;;;;;;;22.80;16.95;;;;;;;-143.53;100.00;58366.03;2083950;28;20197;-66
2022/04/23 04:33:32;;;;;;;22.50;16.75;;;;;;;-143.53;100.00;58366.03;2086612;28;20198;-66
2022/04/23 04:34:34;;;;;;;25.90;17.13;;;;;;;-143.53;100.00;58366.03;2087720;28;20232;-66
2022/04/23 04:35:36;;;;;;;21.70;16.23;;;;;;;-143.53;100.00;58366.03;2087972;28;20203;-66
2022/04/23 04:36:37;;;;;;;24.10;16.95;;;;;;;-143.53;100.00;58366.03;2085854;28;20204;-66
2022/04/23 04:37:39;;;;;;;25.10;16.88;;;;;;;-143.53;100.00;58366.03;2088420;28;20727;-66